sensor_id;sensor_type;location;lat;lon;timestamp;temperature;humidity
16827;DHT22;8530;49.540;8.576;2024-02-26T00:01:48;10.40;53.30
16827;DHT22;8530;49.540;8.576;2024-02-26T00:04:15;10.40;53.30
16827;DHT22;8530;49.540;8.576;2024-02-26T00:06:41;10.40;53.40
16827;DHT22;8530;49.540;8.576;2024-02-26T00:09:09;10.40;53.50
16827;DHT22;8530;49.540;8.576;2024-02-26T00:11:36;10.30;53.50
16827;DHT22;8530;49.540;8.576;2024-02-26T00:14:03;10.30;53.60
16827;DHT22;8530;49.540;8.576;2024-02-26T00:16:31;10.30;53.70
16827;DHT22;8530;49.540;8.576;2024-02-26T00:18:58;10.20;53.70
16827;DHT22;8530;49.540;8.576;2024-02-26T00:21:24;10.20;53.80
16827;DHT22;8530;49.540;8.576;2024-02-26T00:23:53;10.20;53.80
16827;DHT22;8530;49.540;8.576;2024-02-26T00:26:20;10.20;53.90
16827;DHT22;8530;49.540;8.576;2024-02-26T00:28:46;10.20;54.00
16827;DHT22;8530;49.540;8.576;2024-02-26T00:31:13;10.20;54.10
16827;DHT22;8530;49.540;8.576;2024-02-26T00:33:41;10.20;54.20
16827;DHT22;8530;49.540;8.576;2024-02-26T00:36:08;10.20;54.20
16827;DHT22;8530;49.540;8.576;2024-02-26T00:38:36;10.20;54.20
16827;DHT22;8530;49.540;8.576;2024-02-26T00:41:03;10.20;54.30
16827;DHT22;8530;49.540;8.576;2024-02-26T00:43:29;10.20;54.40
16827;DHT22;8530;49.540;8.576;2024-02-26T00:45:56;10.20;54.40
16827;DHT22;8530;49.540;8.576;2024-02-26T00:48:23;10.20;54.50
16827;DHT22;8530;49.540;8.576;2024-02-26T00:50:52;10.20;54.60
16827;DHT22;8530;49.540;8.576;2024-02-26T00:53:19;10.10;54.50
16827;DHT22;8530;49.540;8.576;2024-02-26T00:55:46;10.10;54.60
16827;DHT22;8530;49.540;8.576;2024-02-26T00:58:13;10.10;54.70
16827;DHT22;8530;49.540;8.576;2024-02-26T01:00:40;10.10;54.70
16827;DHT22;8530;49.540;8.576;2024-02-26T01:03:07;10.10;54.80
16827;DHT22;8530;49.540;8.576;2024-02-26T01:05:35;10.10;54.90
16827;DHT22;8530;49.540;8.576;2024-02-26T01:08:05;10.10;55.00
16827;DHT22;8530;49.540;8.576;2024-02-26T01:10:32;10.10;55.00
16827;DHT22;8530;49.540;8.576;2024-02-26T01:12:59;10.10;55.00
16827;DHT22;8530;49.540;8.576;2024-02-26T01:15:26;10.10;55.10
16827;DHT22;8530;49.540;8.576;2024-02-26T01:17:52;10.10;55.20
16827;DHT22;8530;49.540;8.576;2024-02-26T01:20:19;10.10;55.20
16827;DHT22;8530;49.540;8.576;2024-02-26T01:22:47;10.10;55.20
16827;DHT22;8530;49.540;8.576;2024-02-26T01:25:15;10.10;55.30
16827;DHT22;8530;49.540;8.576;2024-02-26T01:27:41;10.10;55.30
16827;DHT22;8530;49.540;8.576;2024-02-26T01:30:10;10.10;55.30
16827;DHT22;8530;49.540;8.576;2024-02-26T01:32:37;10.10;55.40
16827;DHT22;8530;49.540;8.576;2024-02-26T01:35:04;10.10;55.40
16827;DHT22;8530;49.540;8.576;2024-02-26T01:37:35;10.10;55.50
16827;DHT22;8530;49.540;8.576;2024-02-26T01:40:02;10.10;55.50
16827;DHT22;8530;49.540;8.576;2024-02-26T01:42:31;10.10;55.50
16827;DHT22;8530;49.540;8.576;2024-02-26T01:44:58;10.00;55.50
16827;DHT22;8530;49.540;8.576;2024-02-26T01:47:25;10.00;55.60
16827;DHT22;8530;49.540;8.576;2024-02-26T01:49:53;10.00;55.60
16827;DHT22;8530;49.540;8.576;2024-02-26T01:52:21;10.00;55.70
16827;DHT22;8530;49.540;8.576;2024-02-26T01:54:48;9.90;56.60
16827;DHT22;8530;49.540;8.576;2024-02-26T01:57:16;9.90;56.70
16827;DHT22;8530;49.540;8.576;2024-02-26T01:59:45;9.90;56.70
16827;DHT22;8530;49.540;8.576;2024-02-26T02:02:12;9.90;56.80
16827;DHT22;8530;49.540;8.576;2024-02-26T02:04:42;9.90;56.90
16827;DHT22;8530;49.540;8.576;2024-02-26T02:07:08;9.90;56.90
16827;DHT22;8530;49.540;8.576;2024-02-26T02:09:36;9.90;57.00
16827;DHT22;8530;49.540;8.576;2024-02-26T02:12:03;9.90;57.10
16827;DHT22;8530;49.540;8.576;2024-02-26T02:14:30;9.90;57.10
16827;DHT22;8530;49.540;8.576;2024-02-26T02:16:58;9.90;57.20
16827;DHT22;8530;49.540;8.576;2024-02-26T02:19:25;9.90;57.30
16827;DHT22;8530;49.540;8.576;2024-02-26T02:21:53;9.90;57.30
16827;DHT22;8530;49.540;8.576;2024-02-26T02:24:20;9.90;57.50
16827;DHT22;8530;49.540;8.576;2024-02-26T02:26:46;9.90;57.70
16827;DHT22;8530;49.540;8.576;2024-02-26T02:29:14;9.90;57.80
16827;DHT22;8530;49.540;8.576;2024-02-26T02:31:41;9.80;57.90
16827;DHT22;8530;49.540;8.576;2024-02-26T02:34:09;9.80;58.10
16827;DHT22;8530;49.540;8.576;2024-02-26T02:36:48;9.70;58.20
16827;DHT22;8530;49.540;8.576;2024-02-26T02:39:17;9.70;58.60
16827;DHT22;8530;49.540;8.576;2024-02-26T02:41:43;9.60;58.60
16827;DHT22;8530;49.540;8.576;2024-02-26T02:44:10;9.60;58.90
16827;DHT22;8530;49.540;8.576;2024-02-26T02:46:37;9.60;59.10
16827;DHT22;8530;49.540;8.576;2024-02-26T02:49:03;9.50;59.30
16827;DHT22;8530;49.540;8.576;2024-02-26T02:51:30;9.50;59.60
16827;DHT22;8530;49.540;8.576;2024-02-26T02:53:57;9.50;59.80
16827;DHT22;8530;49.540;8.576;2024-02-26T02:56:25;9.40;60.10
16827;DHT22;8530;49.540;8.576;2024-02-26T02:58:51;9.40;60.50
16827;DHT22;8530;49.540;8.576;2024-02-26T03:01:18;9.30;60.70
16827;DHT22;8530;49.540;8.576;2024-02-26T03:03:45;9.30;61.10
16827;DHT22;8530;49.540;8.576;2024-02-26T03:06:12;9.30;62.10
16827;DHT22;8530;49.540;8.576;2024-02-26T03:08:38;9.30;61.80
16827;DHT22;8530;49.540;8.576;2024-02-26T03:11:07;9.20;62.10
16827;DHT22;8530;49.540;8.576;2024-02-26T03:13:35;9.20;62.40
16827;DHT22;8530;49.540;8.576;2024-02-26T03:16:04;9.20;62.70
16827;DHT22;8530;49.540;8.576;2024-02-26T03:18:32;9.20;63.00
16827;DHT22;8530;49.540;8.576;2024-02-26T03:20:58;9.20;63.20
16827;DHT22;8530;49.540;8.576;2024-02-26T03:23:25;9.20;63.50
16827;DHT22;8530;49.540;8.576;2024-02-26T03:25:52;9.20;63.80
16827;DHT22;8530;49.540;8.576;2024-02-26T03:28:18;9.20;64.10
16827;DHT22;8530;49.540;8.576;2024-02-26T03:30:46;9.10;64.30
16827;DHT22;8530;49.540;8.576;2024-02-26T03:33:13;9.10;64.60
16827;DHT22;8530;49.540;8.576;2024-02-26T03:35:40;9.10;64.80
16827;DHT22;8530;49.540;8.576;2024-02-26T03:38:06;9.10;65.10
16827;DHT22;8530;49.540;8.576;2024-02-26T03:40:33;9.00;65.40
16827;DHT22;8530;49.540;8.576;2024-02-26T03:43:00;9.00;65.60
16827;DHT22;8530;49.540;8.576;2024-02-26T03:45:28;9.00;66.00
16827;DHT22;8530;49.540;8.576;2024-02-26T03:47:56;8.90;66.30
16827;DHT22;8530;49.540;8.576;2024-02-26T03:50:22;8.90;66.60
16827;DHT22;8530;49.540;8.576;2024-02-26T03:52:49;8.90;67.00
16827;DHT22;8530;49.540;8.576;2024-02-26T03:55:16;8.80;67.30
16827;DHT22;8530;49.540;8.576;2024-02-26T03:57:46;8.80;67.60
16827;DHT22;8530;49.540;8.576;2024-02-26T04:00:14;8.80;68.00
16827;DHT22;8530;49.540;8.576;2024-02-26T04:02:40;8.80;68.40
16827;DHT22;8530;49.540;8.576;2024-02-26T04:05:11;8.80;68.80
16827;DHT22;8530;49.540;8.576;2024-02-26T04:07:38;8.70;69.20
16827;DHT22;8530;49.540;8.576;2024-02-26T04:10:08;8.70;69.60
16827;DHT22;8530;49.540;8.576;2024-02-26T04:12:37;8.70;70.10
16827;DHT22;8530;49.540;8.576;2024-02-26T04:15:06;8.70;70.50
16827;DHT22;8530;49.540;8.576;2024-02-26T04:17:32;8.70;71.00
16827;DHT22;8530;49.540;8.576;2024-02-26T04:19:59;8.60;71.40
16827;DHT22;8530;49.540;8.576;2024-02-26T04:22:27;8.60;71.90
16827;DHT22;8530;49.540;8.576;2024-02-26T04:24:54;8.60;72.50
16827;DHT22;8530;49.540;8.576;2024-02-26T04:27:21;8.60;73.10
16827;DHT22;8530;49.540;8.576;2024-02-26T04:29:48;8.60;73.60
16827;DHT22;8530;49.540;8.576;2024-02-26T04:32:14;8.70;74.30
16827;DHT22;8530;49.540;8.576;2024-02-26T04:34:41;8.60;74.80
16827;DHT22;8530;49.540;8.576;2024-02-26T04:37:08;8.70;75.50
16827;DHT22;8530;49.540;8.576;2024-02-26T04:39:36;8.60;76.00
16827;DHT22;8530;49.540;8.576;2024-02-26T04:42:03;8.70;76.70
16827;DHT22;8530;49.540;8.576;2024-02-26T04:44:30;8.60;77.20
16827;DHT22;8530;49.540;8.576;2024-02-26T04:46:57;8.70;77.90
16827;DHT22;8530;49.540;8.576;2024-02-26T04:49:23;8.60;78.40
16827;DHT22;8530;49.540;8.576;2024-02-26T04:51:50;8.70;79.10
16827;DHT22;8530;49.540;8.576;2024-02-26T04:54:17;8.70;79.70
16827;DHT22;8530;49.540;8.576;2024-02-26T04:56:45;8.70;80.20
16827;DHT22;8530;49.540;8.576;2024-02-26T04:59:12;8.80;80.90
16827;DHT22;8530;49.540;8.576;2024-02-26T05:01:39;8.80;81.30
16827;DHT22;8530;49.540;8.576;2024-02-26T05:04:07;8.80;81.90
16827;DHT22;8530;49.540;8.576;2024-02-26T05:06:33;8.80;82.60
16827;DHT22;8530;49.540;8.576;2024-02-26T05:09:00;8.70;83.10
16827;DHT22;8530;49.540;8.576;2024-02-26T05:11:27;8.70;83.70
16827;DHT22;8530;49.540;8.576;2024-02-26T05:13:55;8.60;84.30
16827;DHT22;8530;49.540;8.576;2024-02-26T05:16:21;8.60;85.00
16827;DHT22;8530;49.540;8.576;2024-02-26T05:18:50;8.60;85.70
16827;DHT22;8530;49.540;8.576;2024-02-26T05:21:16;8.60;86.30
16827;DHT22;8530;49.540;8.576;2024-02-26T05:23:43;8.50;86.80
16827;DHT22;8530;49.540;8.576;2024-02-26T05:26:11;8.50;87.40
16827;DHT22;8530;49.540;8.576;2024-02-26T05:28:37;8.50;87.90
16827;DHT22;8530;49.540;8.576;2024-02-26T05:31:06;8.50;88.50
16827;DHT22;8530;49.540;8.576;2024-02-26T05:33:33;8.50;89.10
16827;DHT22;8530;49.540;8.576;2024-02-26T05:35:59;8.50;89.70
16827;DHT22;8530;49.540;8.576;2024-02-26T05:38:29;8.60;90.10
16827;DHT22;8530;49.540;8.576;2024-02-26T05:40:57;8.50;90.30
16827;DHT22;8530;49.540;8.576;2024-02-26T05:43:24;8.60;90.50
16827;DHT22;8530;49.540;8.576;2024-02-26T05:45:51;8.60;90.70
16827;DHT22;8530;49.540;8.576;2024-02-26T05:48:19;8.60;90.90
16827;DHT22;8530;49.540;8.576;2024-02-26T05:50:46;8.60;91.10
16827;DHT22;8530;49.540;8.576;2024-02-26T05:53:13;8.60;91.30
16827;DHT22;8530;49.540;8.576;2024-02-26T05:55:39;8.70;91.50
16827;DHT22;8530;49.540;8.576;2024-02-26T05:58:06;8.70;91.70
16827;DHT22;8530;49.540;8.576;2024-02-26T06:00:33;8.70;91.90
16827;DHT22;8530;49.540;8.576;2024-02-26T06:03:00;8.70;92.00
16827;DHT22;8530;49.540;8.576;2024-02-26T06:05:29;8.70;92.40
16827;DHT22;8530;49.540;8.576;2024-02-26T06:07:56;8.80;92.40
16827;DHT22;8530;49.540;8.576;2024-02-26T06:10:22;8.80;92.50
16827;DHT22;8530;49.540;8.576;2024-02-26T06:12:49;8.80;92.60
16827;DHT22;8530;49.540;8.576;2024-02-26T06:15:16;8.80;92.70
16827;DHT22;8530;49.540;8.576;2024-02-26T06:17:43;8.90;92.90
16827;DHT22;8530;49.540;8.576;2024-02-26T06:20:10;8.90;93.00
16827;DHT22;8530;49.540;8.576;2024-02-26T06:22:40;8.90;93.20
16827;DHT22;8530;49.540;8.576;2024-02-26T06:25:07;8.90;93.30
16827;DHT22;8530;49.540;8.576;2024-02-26T06:27:34;8.90;93.40
16827;DHT22;8530;49.540;8.576;2024-02-26T06:30:01;8.90;93.50
16827;DHT22;8530;49.540;8.576;2024-02-26T06:32:28;8.90;93.60
16827;DHT22;8530;49.540;8.576;2024-02-26T06:34:55;8.90;93.80
16827;DHT22;8530;49.540;8.576;2024-02-26T06:37:22;9.00;93.90
16827;DHT22;8530;49.540;8.576;2024-02-26T06:39:50;9.00;94.10
16827;DHT22;8530;49.540;8.576;2024-02-26T06:42:17;9.00;94.10
16827;DHT22;8530;49.540;8.576;2024-02-26T06:44:44;9.00;94.20
16827;DHT22;8530;49.540;8.576;2024-02-26T06:47:10;9.00;94.30
16827;DHT22;8530;49.540;8.576;2024-02-26T06:49:38;9.00;94.40
16827;DHT22;8530;49.540;8.576;2024-02-26T06:52:05;9.00;94.50
16827;DHT22;8530;49.540;8.576;2024-02-26T06:54:31;9.10;94.60
16827;DHT22;8530;49.540;8.576;2024-02-26T06:56:59;9.10;94.70
16827;DHT22;8530;49.540;8.576;2024-02-26T06:59:26;9.10;94.80
16827;DHT22;8530;49.540;8.576;2024-02-26T07:01:53;9.20;95.00
16827;DHT22;8530;49.540;8.576;2024-02-26T07:04:21;9.20;95.10
16827;DHT22;8530;49.540;8.576;2024-02-26T07:06:48;9.30;95.20
16827;DHT22;8530;49.540;8.576;2024-02-26T07:09:16;9.40;95.30
16827;DHT22;8530;49.540;8.576;2024-02-26T07:11:42;9.40;95.30
16827;DHT22;8530;49.540;8.576;2024-02-26T07:14:12;9.40;95.60
16827;DHT22;8530;49.540;8.576;2024-02-26T07:16:39;9.50;95.40
16827;DHT22;8530;49.540;8.576;2024-02-26T07:19:05;9.50;95.50
16827;DHT22;8530;49.540;8.576;2024-02-26T07:21:32;9.60;95.50
16827;DHT22;8530;49.540;8.576;2024-02-26T07:23:59;9.70;95.60
16827;DHT22;8530;49.540;8.576;2024-02-26T07:26:26;9.70;95.60
16827;DHT22;8530;49.540;8.576;2024-02-26T07:28:52;9.80;95.60
16827;DHT22;8530;49.540;8.576;2024-02-26T07:31:20;9.80;95.60
16827;DHT22;8530;49.540;8.576;2024-02-26T07:33:47;9.90;95.60
16827;DHT22;8530;49.540;8.576;2024-02-26T07:36:14;9.90;95.60
16827;DHT22;8530;49.540;8.576;2024-02-26T07:38:41;9.90;95.60
16827;DHT22;8530;49.540;8.576;2024-02-26T07:41:08;9.90;95.60
16827;DHT22;8530;49.540;8.576;2024-02-26T07:43:34;10.00;95.20
16827;DHT22;8530;49.540;8.576;2024-02-26T07:46:01;10.00;95.20
16827;DHT22;8530;49.540;8.576;2024-02-26T07:48:29;10.00;95.20
16827;DHT22;8530;49.540;8.576;2024-02-26T07:50:56;10.00;95.20
16827;DHT22;8530;49.540;8.576;2024-02-26T07:53:24;10.00;95.30
16827;DHT22;8530;49.540;8.576;2024-02-26T07:55:51;10.00;95.30
16827;DHT22;8530;49.540;8.576;2024-02-26T07:58:17;9.90;95.80
16827;DHT22;8530;49.540;8.576;2024-02-26T08:00:44;10.00;95.60
16827;DHT22;8530;49.540;8.576;2024-02-26T08:03:12;10.00;95.40
16827;DHT22;8530;49.540;8.576;2024-02-26T08:05:42;10.00;95.50
16827;DHT22;8530;49.540;8.576;2024-02-26T08:08:09;10.00;95.50
16827;DHT22;8530;49.540;8.576;2024-02-26T08:10:36;10.10;95.60
16827;DHT22;8530;49.540;8.576;2024-02-26T08:13:03;10.20;95.70
16827;DHT22;8530;49.540;8.576;2024-02-26T08:15:31;10.30;95.70
16827;DHT22;8530;49.540;8.576;2024-02-26T08:17:59;10.30;95.70
16827;DHT22;8530;49.540;8.576;2024-02-26T08:20:27;10.40;95.80
16827;DHT22;8530;49.540;8.576;2024-02-26T08:22:55;10.50;95.80
16827;DHT22;8530;49.540;8.576;2024-02-26T08:25:22;10.50;95.80
16827;DHT22;8530;49.540;8.576;2024-02-26T08:27:50;10.70;95.90
16827;DHT22;8530;49.540;8.576;2024-02-26T08:30:17;10.80;95.90
16827;DHT22;8530;49.540;8.576;2024-02-26T08:32:44;10.90;95.90
16827;DHT22;8530;49.540;8.576;2024-02-26T08:35:11;11.00;95.90
16827;DHT22;8530;49.540;8.576;2024-02-26T08:37:38;11.20;95.90
16827;DHT22;8530;49.540;8.576;2024-02-26T08:40:07;11.30;95.80
16827;DHT22;8530;49.540;8.576;2024-02-26T08:42:34;11.40;95.80
16827;DHT22;8530;49.540;8.576;2024-02-26T08:45:01;11.60;95.90
16827;DHT22;8530;49.540;8.576;2024-02-26T08:47:28;11.80;96.00
16827;DHT22;8530;49.540;8.576;2024-02-26T08:49:55;12.10;96.00
16827;DHT22;8530;49.540;8.576;2024-02-26T08:52:22;12.40;95.90
16827;DHT22;8530;49.540;8.576;2024-02-26T08:54:49;12.70;95.90
16827;DHT22;8530;49.540;8.576;2024-02-26T08:57:17;12.90;95.60
16827;DHT22;8530;49.540;8.576;2024-02-26T08:59:44;13.20;95.50
16827;DHT22;8530;49.540;8.576;2024-02-26T09:02:10;13.30;95.30
16827;DHT22;8530;49.540;8.576;2024-02-26T09:04:37;13.30;94.80
16827;DHT22;8530;49.540;8.576;2024-02-26T09:07:04;13.40;94.70
16827;DHT22;8530;49.540;8.576;2024-02-26T09:09:31;13.40;94.40
16827;DHT22;8530;49.540;8.576;2024-02-26T09:11:58;13.40;94.10
16827;DHT22;8530;49.540;8.576;2024-02-26T09:14:26;13.30;93.80
16827;DHT22;8530;49.540;8.576;2024-02-26T09:16:53;13.30;93.50
16827;DHT22;8530;49.540;8.576;2024-02-26T09:19:19;13.30;93.40
16827;DHT22;8530;49.540;8.576;2024-02-26T09:21:46;13.30;93.30
16827;DHT22;8530;49.540;8.576;2024-02-26T09:24:13;13.30;93.10
16827;DHT22;8530;49.540;8.576;2024-02-26T09:26:40;13.40;93.00
16827;DHT22;8530;49.540;8.576;2024-02-26T09:29:07;13.30;92.80
16827;DHT22;8530;49.540;8.576;2024-02-26T09:31:35;13.30;92.60
16827;DHT22;8530;49.540;8.576;2024-02-26T09:34:02;13.30;92.50
16827;DHT22;8530;49.540;8.576;2024-02-26T09:36:28;13.30;92.30
16827;DHT22;8530;49.540;8.576;2024-02-26T09:38:56;13.20;92.10
16827;DHT22;8530;49.540;8.576;2024-02-26T09:41:23;13.00;91.90
16827;DHT22;8530;49.540;8.576;2024-02-26T09:43:50;13.00;91.90
16827;DHT22;8530;49.540;8.576;2024-02-26T09:46:20;13.00;91.90
16827;DHT22;8530;49.540;8.576;2024-02-26T09:48:48;13.00;91.80
16827;DHT22;8530;49.540;8.576;2024-02-26T09:51:16;13.10;91.80
16827;DHT22;8530;49.540;8.576;2024-02-26T09:53:44;13.20;91.70
16827;DHT22;8530;49.540;8.576;2024-02-26T09:56:12;13.30;91.60
16827;DHT22;8530;49.540;8.576;2024-02-26T09:58:39;13.40;91.50
16827;DHT22;8530;49.540;8.576;2024-02-26T10:01:16;13.50;91.30
16827;DHT22;8530;49.540;8.576;2024-02-26T10:03:43;13.60;91.10
16827;DHT22;8530;49.540;8.576;2024-02-26T10:06:12;13.70;91.00
16827;DHT22;8530;49.540;8.576;2024-02-26T10:08:40;13.90;90.90
16827;DHT22;8530;49.540;8.576;2024-02-26T10:11:07;13.90;90.70
16827;DHT22;8530;49.540;8.576;2024-02-26T10:13:34;14.00;90.40
16827;DHT22;8530;49.540;8.576;2024-02-26T10:16:02;14.10;90.40
16827;DHT22;8530;49.540;8.576;2024-02-26T10:18:45;14.20;90.30
16827;DHT22;8530;49.540;8.576;2024-02-26T10:21:13;14.50;90.10
16827;DHT22;8530;49.540;8.576;2024-02-26T10:23:41;14.70;90.00
16827;DHT22;8530;49.540;8.576;2024-02-26T10:26:10;14.80;89.40
16827;DHT22;8530;49.540;8.576;2024-02-26T10:28:37;14.90;88.60
16827;DHT22;8530;49.540;8.576;2024-02-26T10:31:04;14.90;87.70
16827;DHT22;8530;49.540;8.576;2024-02-26T10:33:33;14.80;87.10
16827;DHT22;8530;49.540;8.576;2024-02-26T10:36:01;14.90;86.80
16827;DHT22;8530;49.540;8.576;2024-02-26T10:38:29;14.90;86.10
16827;DHT22;8530;49.540;8.576;2024-02-26T10:40:56;14.80;85.50
16827;DHT22;8530;49.540;8.576;2024-02-26T10:43:23;14.90;85.20
16827;DHT22;8530;49.540;8.576;2024-02-26T10:45:49;15.10;85.10
16827;DHT22;8530;49.540;8.576;2024-02-26T10:48:16;15.30;84.90
16827;DHT22;8530;49.540;8.576;2024-02-26T10:50:44;15.60;84.60
16827;DHT22;8530;49.540;8.576;2024-02-26T10:53:15;15.90;84.20
16827;DHT22;8530;49.540;8.576;2024-02-26T10:55:47;16.10;83.30
16827;DHT22;8530;49.540;8.576;2024-02-26T10:58:14;16.30;82.50
16827;DHT22;8530;49.540;8.576;2024-02-26T11:00:43;16.40;81.80
16827;DHT22;8530;49.540;8.576;2024-02-26T11:03:11;16.40;80.80
16827;DHT22;8530;49.540;8.576;2024-02-26T11:05:39;16.60;80.10
16827;DHT22;8530;49.540;8.576;2024-02-26T11:08:08;16.80;79.10
16827;DHT22;8530;49.540;8.576;2024-02-26T11:10:36;17.00;78.30
16827;DHT22;8530;49.540;8.576;2024-02-26T11:13:05;17.10;77.40
16827;DHT22;8530;49.540;8.576;2024-02-26T11:15:32;17.20;76.30
16827;DHT22;8530;49.540;8.576;2024-02-26T11:18:00;17.10;74.80
16827;DHT22;8530;49.540;8.576;2024-02-26T11:20:28;16.90;73.40
16827;DHT22;8530;49.540;8.576;2024-02-26T11:22:55;16.80;72.80
16827;DHT22;8530;49.540;8.576;2024-02-26T11:25:22;16.80;72.50
16827;DHT22;8530;49.540;8.576;2024-02-26T11:27:52;16.80;72.20
16827;DHT22;8530;49.540;8.576;2024-02-26T11:30:24;16.80;71.80
16827;DHT22;8530;49.540;8.576;2024-02-26T11:32:52;17.00;71.60
16827;DHT22;8530;49.540;8.576;2024-02-26T11:35:19;17.20;71.30
16827;DHT22;8530;49.540;8.576;2024-02-26T11:37:56;17.40;70.70
16827;DHT22;8530;49.540;8.576;2024-02-26T11:40:24;17.60;69.70
16827;DHT22;8530;49.540;8.576;2024-02-26T11:42:51;17.80;69.30
16827;DHT22;8530;49.540;8.576;2024-02-26T11:48:23;17.80;67.20
16827;DHT22;8530;49.540;8.576;2024-02-26T11:50:51;17.70;66.50
16827;DHT22;8530;49.540;8.576;2024-02-26T11:53:20;17.80;66.10
16827;DHT22;8530;49.540;8.576;2024-02-26T11:55:47;17.90;65.50
16827;DHT22;8530;49.540;8.576;2024-02-26T11:58:13;18.00;64.70
16827;DHT22;8530;49.540;8.576;2024-02-26T12:00:40;17.90;63.60
16827;DHT22;8530;49.540;8.576;2024-02-26T12:03:07;17.90;63.10
16827;DHT22;8530;49.540;8.576;2024-02-26T12:05:37;18.00;62.70
16827;DHT22;8530;49.540;8.576;2024-02-26T12:08:06;18.00;62.20
16827;DHT22;8530;49.540;8.576;2024-02-26T12:10:34;18.10;61.70
16827;DHT22;8530;49.540;8.576;2024-02-26T12:13:07;18.10;61.10
16827;DHT22;8530;49.540;8.576;2024-02-26T12:15:36;18.20;60.60
16827;DHT22;8530;49.540;8.576;2024-02-26T12:18:05;18.20;60.10
16827;DHT22;8530;49.540;8.576;2024-02-26T12:20:32;18.20;59.80
16827;DHT22;8530;49.540;8.576;2024-02-26T12:23:02;18.20;59.30
16827;DHT22;8530;49.540;8.576;2024-02-26T12:25:30;18.30;59.00
16827;DHT22;8530;49.540;8.576;2024-02-26T12:27:57;18.40;58.80
16827;DHT22;8530;49.540;8.576;2024-02-26T12:30:24;18.50;58.20
16827;DHT22;8530;49.540;8.576;2024-02-26T12:32:52;18.70;57.80
16827;DHT22;8530;49.540;8.576;2024-02-26T12:35:22;18.80;57.40
16827;DHT22;8530;49.540;8.576;2024-02-26T12:37:50;19.10;57.70
16827;DHT22;8530;49.540;8.576;2024-02-26T12:40:18;19.40;56.70
16827;DHT22;8530;49.540;8.576;2024-02-26T12:42:45;19.50;55.70
16827;DHT22;8530;49.540;8.576;2024-02-26T12:45:13;19.60;55.00
16827;DHT22;8530;49.540;8.576;2024-02-26T12:47:42;19.60;54.50
16827;DHT22;8530;49.540;8.576;2024-02-26T12:50:10;19.80;54.40
16827;DHT22;8530;49.540;8.576;2024-02-26T12:52:39;19.80;53.40
16827;DHT22;8530;49.540;8.576;2024-02-26T12:55:07;19.70;52.50
16827;DHT22;8530;49.540;8.576;2024-02-26T12:57:36;19.60;52.10
16827;DHT22;8530;49.540;8.576;2024-02-26T13:00:05;19.50;51.70
16827;DHT22;8530;49.540;8.576;2024-02-26T13:02:35;19.20;51.00
16827;DHT22;8530;49.540;8.576;2024-02-26T13:05:03;19.00;50.50
16827;DHT22;8530;49.540;8.576;2024-02-26T13:07:30;18.70;50.10
16827;DHT22;8530;49.540;8.576;2024-02-26T13:09:57;18.30;49.80
16827;DHT22;8530;49.540;8.576;2024-02-26T13:12:24;17.90;49.70
16827;DHT22;8530;49.540;8.576;2024-02-26T13:14:59;17.50;49.80
16827;DHT22;8530;49.540;8.576;2024-02-26T13:17:27;17.20;50.10
16827;DHT22;8530;49.540;8.576;2024-02-26T13:19:54;16.90;50.60
16827;DHT22;8530;49.540;8.576;2024-02-26T13:22:21;16.80;51.00
16827;DHT22;8530;49.540;8.576;2024-02-26T13:24:54;17.00;51.60
16827;DHT22;8530;49.540;8.576;2024-02-26T13:27:22;17.30;51.80
16827;DHT22;8530;49.540;8.576;2024-02-26T13:30:09;17.60;51.90
16827;DHT22;8530;49.540;8.576;2024-02-26T13:32:37;17.70;51.60
16827;DHT22;8530;49.540;8.576;2024-02-26T13:35:05;17.70;51.50
16827;DHT22;8530;49.540;8.576;2024-02-26T13:37:32;17.70;51.30
16827;DHT22;8530;49.540;8.576;2024-02-26T13:39:59;17.60;51.20
16827;DHT22;8530;49.540;8.576;2024-02-26T13:42:29;17.50;51.00
16827;DHT22;8530;49.540;8.576;2024-02-26T13:44:56;17.30;51.10
16827;DHT22;8530;49.540;8.576;2024-02-26T13:47:24;17.30;51.40
16827;DHT22;8530;49.540;8.576;2024-02-26T13:49:51;17.30;51.60
16827;DHT22;8530;49.540;8.576;2024-02-26T13:52:18;17.30;51.70
16827;DHT22;8530;49.540;8.576;2024-02-26T13:54:45;17.40;51.80
16827;DHT22;8530;49.540;8.576;2024-02-26T13:57:12;17.50;51.90
16827;DHT22;8530;49.540;8.576;2024-02-26T13:59:39;17.70;51.80
16827;DHT22;8530;49.540;8.576;2024-02-26T14:02:07;17.80;51.60
16827;DHT22;8530;49.540;8.576;2024-02-26T14:04:36;17.70;51.40
16827;DHT22;8530;49.540;8.576;2024-02-26T14:07:03;17.50;51.30
16827;DHT22;8530;49.540;8.576;2024-02-26T14:09:30;17.30;51.30
16827;DHT22;8530;49.540;8.576;2024-02-26T14:11:57;17.10;51.40
16827;DHT22;8530;49.540;8.576;2024-02-26T14:14:24;17.10;51.70
16827;DHT22;8530;49.540;8.576;2024-02-26T14:16:51;17.00;52.00
16827;DHT22;8530;49.540;8.576;2024-02-26T14:19:18;16.90;52.00
16827;DHT22;8530;49.540;8.576;2024-02-26T14:21:46;16.90;52.20
16827;DHT22;8530;49.540;8.576;2024-02-26T14:24:13;16.90;52.30
16827;DHT22;8530;49.540;8.576;2024-02-26T14:26:40;16.90;52.30
16827;DHT22;8530;49.540;8.576;2024-02-26T14:29:07;17.00;52.40
16827;DHT22;8530;49.540;8.576;2024-02-26T14:31:33;17.00;52.40
16827;DHT22;8530;49.540;8.576;2024-02-26T14:34:00;17.00;52.50
16827;DHT22;8530;49.540;8.576;2024-02-26T14:36:27;17.00;52.50
16827;DHT22;8530;49.540;8.576;2024-02-26T14:38:56;17.00;52.40
16827;DHT22;8530;49.540;8.576;2024-02-26T14:41:22;17.00;52.40
16827;DHT22;8530;49.540;8.576;2024-02-26T14:43:49;17.00;52.40
16827;DHT22;8530;49.540;8.576;2024-02-26T14:46:16;17.00;52.40
16827;DHT22;8530;49.540;8.576;2024-02-26T14:48:44;17.00;52.30
16827;DHT22;8530;49.540;8.576;2024-02-26T14:51:10;17.00;52.30
16827;DHT22;8530;49.540;8.576;2024-02-26T14:53:37;16.90;52.20
16827;DHT22;8530;49.540;8.576;2024-02-26T14:56:05;16.70;52.10
16827;DHT22;8530;49.540;8.576;2024-02-26T14:58:32;16.60;52.20
16827;DHT22;8530;49.540;8.576;2024-02-26T15:00:59;16.60;52.30
16827;DHT22;8530;49.540;8.576;2024-02-26T15:03:26;16.40;52.30
16827;DHT22;8530;49.540;8.576;2024-02-26T15:05:52;16.30;52.50
16827;DHT22;8530;49.540;8.576;2024-02-26T15:08:19;16.40;52.80
16827;DHT22;8530;49.540;8.576;2024-02-26T15:10:46;16.40;52.80
16827;DHT22;8530;49.540;8.576;2024-02-26T15:13:15;16.40;52.90
16827;DHT22;8530;49.540;8.576;2024-02-26T15:15:43;16.50;53.00
16827;DHT22;8530;49.540;8.576;2024-02-26T15:18:10;16.50;52.90
16827;DHT22;8530;49.540;8.576;2024-02-26T15:20:41;16.50;52.80
16827;DHT22;8530;49.540;8.576;2024-02-26T15:23:07;16.40;52.70
16827;DHT22;8530;49.540;8.576;2024-02-26T15:25:34;16.20;52.70
16827;DHT22;8530;49.540;8.576;2024-02-26T15:28:01;16.00;52.90
16827;DHT22;8530;49.540;8.576;2024-02-26T15:30:29;15.90;53.00
16827;DHT22;8530;49.540;8.576;2024-02-26T15:32:58;15.70;53.20
16827;DHT22;8530;49.540;8.576;2024-02-26T15:35:24;15.50;53.50
16827;DHT22;8530;49.540;8.576;2024-02-26T15:37:51;15.40;53.80
16827;DHT22;8530;49.540;8.576;2024-02-26T15:40:18;15.30;54.00
16827;DHT22;8530;49.540;8.576;2024-02-26T15:42:45;15.20;54.20
16827;DHT22;8530;49.540;8.576;2024-02-26T15:45:12;15.10;54.40
16827;DHT22;8530;49.540;8.576;2024-02-26T15:47:42;15.00;54.60
16827;DHT22;8530;49.540;8.576;2024-02-26T15:50:09;15.00;54.90
16827;DHT22;8530;49.540;8.576;2024-02-26T15:52:37;14.90;55.00
16827;DHT22;8530;49.540;8.576;2024-02-26T15:55:04;14.90;55.30
16827;DHT22;8530;49.540;8.576;2024-02-26T15:57:31;14.80;55.40